PGT284 LATI-LTFJ
Flight info
| Callsign | PGT284 |
|---|---|
| Flight time | 1h 12m |
| Altitude | 37000 |
| Route | ODRAS DCT MAVAR DCT GOSTI DCT VELBA DCT ADORU UM19 IBODU |
| Aircraft | A21N/M-SDE3FGHIRWY/LB1 |
Departure
| Time | 2026-04-29 21:33 |
|---|---|
| Airport | Tirana International Airport Mother Teresa (LATI) |
Arrival
| Time | 2026-04-29 22:45 |
|---|---|
| Airport | Istanbul Sabiha Gökçen International Airport (LTFJ) |
| Time | Latitude | Longitude | Altitude | Speed | Heading |
|---|---|---|---|---|---|
| 2026-04-29 21:20 | 41.42025 | 19.71499 | 114 ft | 0 kts | 264° |
| 2026-04-29 21:26 | 41.42026 | 19.71503 | 114 ft | 2 kts | 264° |
| 2026-04-29 21:26 | 41.42027 | 19.71522 | 114 ft | 2 kts | 264° |
| 2026-04-29 21:26 | 41.42029 | 19.71542 | 114 ft | 2 kts | 264° |
| 2026-04-29 21:27 | 41.42031 | 19.71561 | 114 ft | 1 kts | 279° |
| 2026-04-29 21:27 | 41.42024 | 19.71574 | 114 ft | 1 kts | 340° |
| 2026-04-29 21:27 | 41.42018 | 19.71576 | 114 ft | 1 kts | 2° |
| 2026-04-29 21:27 | 41.42013 | 19.71576 | 114 ft | 0 kts | 355° |
| 2026-04-29 21:28 | 41.42014 | 19.71576 | 114 ft | 0 kts | 355° |
| 2026-04-29 21:29 | 41.42017 | 19.71576 | 114 ft | 3 kts | 355° |
| 2026-04-29 21:30 | 41.42092 | 19.71565 | 114 ft | 16 kts | 354° |
| 2026-04-29 21:30 | 41.42210 | 19.71550 | 113 ft | 17 kts | 355° |
| 2026-04-29 21:30 | 41.42334 | 19.71535 | 110 ft | 18 kts | 354° |
| 2026-04-29 21:30 | 41.42462 | 19.71518 | 111 ft | 18 kts | 355° |
| 2026-04-29 21:31 | 41.42578 | 19.71503 | 110 ft | 12 kts | 354° |
| 2026-04-29 21:31 | 41.42659 | 19.71513 | 111 ft | 11 kts | 58° |
| 2026-04-29 21:31 | 41.42672 | 19.71626 | 110 ft | 12 kts | 85° |
| 2026-04-29 21:31 | 41.42680 | 19.71745 | 110 ft | 13 kts | 85° |
| 2026-04-29 21:32 | 41.42687 | 19.71863 | 111 ft | 12 kts | 105° |
| 2026-04-29 21:32 | 41.42588 | 19.71908 | 112 ft | 34 kts | 175° |
| 2026-04-29 21:32 | 41.42078 | 19.71976 | 116 ft | 109 kts | 174° |
| 2026-04-29 21:32 | 41.41115 | 19.72102 | 135 ft | 167 kts | 174° |
| 2026-04-29 21:33 | 41.39916 | 19.72261 | 697 ft | 174 kts | 174° |
| 2026-04-29 21:33 | 41.38729 | 19.72417 | 1457 ft | 175 kts | 173° |
| 2026-04-29 21:33 | 41.37521 | 19.72578 | 2108 ft | 180 kts | 174° |
| 2026-04-29 21:33 | 41.36231 | 19.72754 | 2597 ft | 193 kts | 174° |
| 2026-04-29 21:34 | 41.34831 | 19.72943 | 3052 ft | 209 kts | 175° |
| 2026-04-29 21:34 | 41.33338 | 19.73141 | 3488 ft | 227 kts | 176° |
| 2026-04-29 21:34 | 41.31668 | 19.73358 | 3881 ft | 250 kts | 176° |
| 2026-04-29 21:34 | 41.29879 | 19.73591 | 4465 ft | 266 kts | 175° |
| 2026-04-29 21:35 | 41.28029 | 19.73835 | 5288 ft | 271 kts | 175° |
| 2026-04-29 21:35 | 41.26156 | 19.74001 | 6149 ft | 273 kts | 185° |
| 2026-04-29 21:35 | 41.24364 | 19.73315 | 6960 ft | 273 kts | 211° |
| 2026-04-29 21:35 | 41.22946 | 19.71704 | 7758 ft | 274 kts | 235° |
| 2026-04-29 21:36 | 41.22127 | 19.69443 | 8559 ft | 274 kts | 258° |
| 2026-04-29 21:36 | 41.22068 | 19.66967 | 9357 ft | 275 kts | 281° |
| 2026-04-29 21:36 | 41.22782 | 19.64618 | 10157 ft | 277 kts | 304° |
| 2026-04-29 21:36 | 41.24158 | 19.62816 | 10722 ft | 290 kts | 326° |
| 2026-04-29 21:37 | 41.26114 | 19.61893 | 11064 ft | 312 kts | 352° |
| 2026-04-29 21:37 | 41.28330 | 19.62289 | 11388 ft | 336 kts | 20° |
| 2026-04-29 21:37 | 41.30418 | 19.63759 | 11969 ft | 347 kts | 27° |
| 2026-04-29 21:37 | 41.32545 | 19.65318 | 12691 ft | 350 kts | 26° |
| 2026-04-29 21:38 | 41.34688 | 19.66858 | 13392 ft | 354 kts | 26° |
| 2026-04-29 21:38 | 41.36855 | 19.68402 | 14076 ft | 358 kts | 25° |
| 2026-04-29 21:38 | 41.39052 | 19.69971 | 14743 ft | 362 kts | 26° |
| 2026-04-29 21:38 | 41.41097 | 19.71995 | 15347 ft | 372 kts | 43° |
| 2026-04-29 21:39 | 41.42631 | 19.74785 | 15956 ft | 381 kts | 60° |
| 2026-04-29 21:39 | 41.43715 | 19.78009 | 16591 ft | 386 kts | 65° |
| 2026-04-29 21:39 | 41.44732 | 19.81358 | 17174 ft | 391 kts | 66° |
| 2026-04-29 21:39 | 41.45750 | 19.84715 | 17729 ft | 395 kts | 66° |
| 2026-04-29 21:40 | 41.46803 | 19.88121 | 18282 ft | 399 kts | 65° |
| 2026-04-29 21:40 | 41.47874 | 19.91536 | 18881 ft | 403 kts | 65° |
| 2026-04-29 21:40 | 41.48953 | 19.94956 | 19424 ft | 406 kts | 65° |
| 2026-04-29 21:40 | 41.50049 | 19.98429 | 19982 ft | 410 kts | 65° |
| 2026-04-29 21:41 | 41.51159 | 20.01954 | 20545 ft | 413 kts | 64° |
| 2026-04-29 21:41 | 41.52270 | 20.05498 | 21067 ft | 417 kts | 65° |
| 2026-04-29 21:41 | 41.53383 | 20.09066 | 21583 ft | 420 kts | 65° |
| 2026-04-29 21:41 | 41.54506 | 20.12672 | 22088 ft | 424 kts | 65° |
| 2026-04-29 21:42 | 41.55637 | 20.16291 | 22584 ft | 427 kts | 64° |
| 2026-04-29 21:42 | 41.56785 | 20.19962 | 23057 ft | 431 kts | 64° |
| 2026-04-29 21:42 | 41.57937 | 20.23651 | 23527 ft | 434 kts | 64° |
| 2026-04-29 21:42 | 41.59091 | 20.27353 | 23984 ft | 437 kts | 64° |
| 2026-04-29 21:43 | 41.60268 | 20.31138 | 24445 ft | 440 kts | 64° |
| 2026-04-29 21:43 | 41.61430 | 20.34885 | 24898 ft | 443 kts | 64° |
| 2026-04-29 21:43 | 41.62618 | 20.38727 | 25315 ft | 446 kts | 64° |
| 2026-04-29 21:43 | 41.63791 | 20.42528 | 25716 ft | 449 kts | 64° |
| 2026-04-29 21:44 | 41.64988 | 20.46408 | 26107 ft | 452 kts | 64° |
| 2026-04-29 21:44 | 41.66183 | 20.50286 | 26506 ft | 455 kts | 64° |
| 2026-04-29 21:44 | 41.67323 | 20.54238 | 26892 ft | 458 kts | 67° |
| 2026-04-29 21:44 | 41.68353 | 20.58270 | 27246 ft | 462 kts | 69° |
| 2026-04-29 21:45 | 41.69373 | 20.62397 | 27595 ft | 465 kts | 69° |
| 2026-04-29 21:45 | 41.70373 | 20.66481 | 27925 ft | 468 kts | 69° |
| 2026-04-29 21:45 | 41.71390 | 20.70634 | 28231 ft | 471 kts | 69° |
| 2026-04-29 21:45 | 41.72409 | 20.74799 | 28550 ft | 473 kts | 69° |
| 2026-04-29 21:46 | 41.73431 | 20.78972 | 28862 ft | 476 kts | 69° |
| 2026-04-29 21:46 | 41.74459 | 20.83173 | 29155 ft | 478 kts | 69° |
| 2026-04-29 21:46 | 41.75483 | 20.87359 | 29429 ft | 481 kts | 69° |
| 2026-04-29 21:46 | 41.76525 | 20.91635 | 29704 ft | 483 kts | 69° |
| 2026-04-29 21:47 | 41.77568 | 20.95924 | 30001 ft | 485 kts | 69° |
| 2026-04-29 21:47 | 41.78602 | 21.00187 | 30358 ft | 485 kts | 69° |
| 2026-04-29 21:47 | 41.79640 | 21.04466 | 30741 ft | 484 kts | 70° |
| 2026-04-29 21:47 | 41.80584 | 21.08804 | 31115 ft | 485 kts | 73° |
| 2026-04-29 21:48 | 41.81323 | 21.13148 | 31457 ft | 486 kts | 77° |
| 2026-04-29 21:48 | 41.81863 | 21.17597 | 31799 ft | 486 kts | 80° |
| 2026-04-29 21:48 | 41.82298 | 21.22099 | 32138 ft | 486 kts | 81° |
| 2026-04-29 21:48 | 41.82703 | 21.26543 | 32436 ft | 486 kts | 81° |
| 2026-04-29 21:49 | 41.83112 | 21.31064 | 32758 ft | 485 kts | 81° |
| 2026-04-29 21:49 | 41.83519 | 21.35539 | 33078 ft | 485 kts | 81° |
| 2026-04-29 21:49 | 41.83923 | 21.39955 | 33374 ft | 484 kts | 81° |
| 2026-04-29 21:49 | 41.84332 | 21.44418 | 33652 ft | 484 kts | 81° |
| 2026-04-29 21:50 | 41.84747 | 21.48923 | 33916 ft | 484 kts | 81° |
| 2026-04-29 21:50 | 41.85152 | 21.53350 | 34178 ft | 484 kts | 81° |
| 2026-04-29 21:50 | 41.85559 | 21.57813 | 34441 ft | 483 kts | 81° |
| 2026-04-29 21:50 | 41.85963 | 21.62263 | 34653 ft | 484 kts | 81° |
| 2026-04-29 21:51 | 41.86366 | 21.66713 | 34852 ft | 484 kts | 82° |
| 2026-04-29 21:51 | 41.86772 | 21.71225 | 35053 ft | 483 kts | 81° |
| 2026-04-29 21:51 | 41.87570 | 21.80150 | 35389 ft | 484 kts | 81° |
| 2026-04-29 21:52 | 41.87966 | 21.84600 | 35527 ft | 485 kts | 81° |
| 2026-04-29 21:52 | 41.88360 | 21.89058 | 35671 ft | 485 kts | 81° |
| 2026-04-29 21:52 | 41.88757 | 21.93576 | 35808 ft | 486 kts | 81° |
| 2026-04-29 21:52 | 41.89147 | 21.98019 | 35933 ft | 487 kts | 81° |
| 2026-04-29 21:53 | 41.89540 | 22.02522 | 36070 ft | 487 kts | 81° |
| 2026-04-29 21:53 | 41.89934 | 22.07046 | 36214 ft | 487 kts | 81° |
| 2026-04-29 21:53 | 41.90324 | 22.11546 | 36342 ft | 488 kts | 81° |
| 2026-04-29 21:53 | 41.90708 | 22.16011 | 36470 ft | 488 kts | 81° |
| 2026-04-29 21:54 | 41.91094 | 22.20521 | 36600 ft | 489 kts | 81° |
| 2026-04-29 21:54 | 41.91483 | 22.25086 | 36712 ft | 490 kts | 81° |
| 2026-04-29 21:54 | 41.91865 | 22.29586 | 36852 ft | 491 kts | 81° |
| 2026-04-29 21:54 | 41.92252 | 22.34161 | 37009 ft | 491 kts | 81° |
| 2026-04-29 21:55 | 41.93013 | 22.43236 | 37081 ft | 493 kts | 81° |
| 2026-04-29 21:55 | 41.93770 | 22.52355 | 37085 ft | 498 kts | 81° |
| 2026-04-29 21:56 | 41.94534 | 22.61656 | 37083 ft | 503 kts | 81° |
| 2026-04-29 21:56 | 41.95289 | 22.70969 | 37075 ft | 505 kts | 82° |
| 2026-04-29 21:57 | 41.96041 | 22.80326 | 37071 ft | 506 kts | 82° |
| 2026-04-29 21:57 | 41.96629 | 22.89691 | 37074 ft | 507 kts | 86° |
| 2026-04-29 21:58 | 41.96612 | 22.99119 | 37075 ft | 508 kts | 90° |
| 2026-04-29 21:58 | 41.96484 | 23.08604 | 37072 ft | 508 kts | 89° |
| 2026-04-29 21:59 | 41.96358 | 23.18045 | 37074 ft | 508 kts | 89° |
| 2026-04-29 21:59 | 41.96233 | 23.27550 | 37072 ft | 508 kts | 89° |
| 2026-04-29 22:00 | 41.96105 | 23.36970 | 37073 ft | 508 kts | 89° |
| 2026-04-29 22:00 | 41.95969 | 23.46438 | 37076 ft | 508 kts | 89° |
| 2026-04-29 22:01 | 41.95825 | 23.55888 | 37078 ft | 508 kts | 89° |
| 2026-04-29 22:01 | 41.95674 | 23.65352 | 37076 ft | 508 kts | 90° |
| 2026-04-29 22:02 | 41.95514 | 23.74787 | 37075 ft | 508 kts | 90° |
| 2026-04-29 22:02 | 41.95347 | 23.84192 | 37071 ft | 508 kts | 90° |
| 2026-04-29 22:03 | 41.95172 | 23.93643 | 37069 ft | 509 kts | 90° |
| 2026-04-29 22:03 | 41.94989 | 24.03137 | 37071 ft | 508 kts | 90° |
| 2026-04-29 22:04 | 41.94800 | 24.12577 | 37073 ft | 508 kts | 90° |
| 2026-04-29 22:04 | 41.94603 | 24.22009 | 37072 ft | 508 kts | 90° |
| 2026-04-29 22:05 | 41.94395 | 24.31457 | 37073 ft | 508 kts | 90° |
| 2026-04-29 22:06 | 41.94072 | 24.45605 | 37081 ft | 508 kts | 90° |
| 2026-04-29 22:06 | 41.93846 | 24.55087 | 37083 ft | 509 kts | 90° |
| 2026-04-29 22:07 | 41.93614 | 24.64533 | 37083 ft | 509 kts | 90° |
| 2026-04-29 22:07 | 41.93373 | 24.74002 | 37084 ft | 508 kts | 91° |
| 2026-04-29 22:08 | 41.93125 | 24.83416 | 37090 ft | 508 kts | 90° |
| 2026-04-29 22:08 | 41.92869 | 24.92879 | 37086 ft | 509 kts | 90° |
| 2026-04-29 22:09 | 41.92604 | 25.02295 | 37080 ft | 508 kts | 90° |
| 2026-04-29 22:09 | 41.92331 | 25.11801 | 37086 ft | 509 kts | 90° |
| 2026-04-29 22:10 | 41.92054 | 25.21225 | 37086 ft | 509 kts | 90° |
| 2026-04-29 22:10 | 41.91766 | 25.30682 | 37077 ft | 509 kts | 91° |
| 2026-04-29 22:11 | 41.91470 | 25.40132 | 37080 ft | 509 kts | 91° |
| 2026-04-29 22:11 | 41.91165 | 25.49631 | 37076 ft | 509 kts | 91° |
| 2026-04-29 22:12 | 41.90854 | 25.59077 | 37078 ft | 509 kts | 90° |
| 2026-04-29 22:12 | 41.90536 | 25.68529 | 37075 ft | 510 kts | 91° |
| 2026-04-29 22:13 | 41.90209 | 25.78024 | 37079 ft | 510 kts | 91° |
| 2026-04-29 22:13 | 41.89875 | 25.87445 | 37077 ft | 510 kts | 91° |
| 2026-04-29 22:14 | 41.89530 | 25.96926 | 37072 ft | 510 kts | 91° |
| 2026-04-29 22:14 | 41.89180 | 26.06382 | 37071 ft | 510 kts | 91° |
| 2026-04-29 22:15 | 41.88823 | 26.15835 | 37074 ft | 510 kts | 91° |
| 2026-04-29 22:15 | 41.88452 | 26.25353 | 37076 ft | 510 kts | 91° |
| 2026-04-29 22:16 | 41.88076 | 26.34810 | 37083 ft | 510 kts | 91° |
| 2026-04-29 22:16 | 41.87682 | 26.44307 | 37080 ft | 510 kts | 93° |
| 2026-04-29 22:17 | 41.86379 | 26.53554 | 37083 ft | 511 kts | 107° |
| 2026-04-29 22:17 | 41.83490 | 26.62235 | 37087 ft | 509 kts | 122° |
| 2026-04-29 22:18 | 41.79310 | 26.69787 | 37087 ft | 505 kts | 133° |
| 2026-04-29 22:18 | 41.74790 | 26.76916 | 37088 ft | 504 kts | 133° |
| 2026-04-29 22:19 | 41.70293 | 26.84072 | 37091 ft | 505 kts | 133° |
| 2026-04-29 22:19 | 41.65810 | 26.91267 | 37096 ft | 505 kts | 132° |
| 2026-04-29 22:20 | 41.61339 | 26.98447 | 36990 ft | 501 kts | 132° |
| 2026-04-29 22:20 | 41.59129 | 27.01989 | 36511 ft | 498 kts | 132° |
| 2026-04-29 22:20 | 41.56921 | 27.05523 | 35857 ft | 501 kts | 132° |
| 2026-04-29 22:20 | 41.54635 | 27.08994 | 35103 ft | 503 kts | 136° |
| 2026-04-29 22:21 | 41.52205 | 27.12365 | 34325 ft | 505 kts | 137° |
| 2026-04-29 22:21 | 41.49764 | 27.15697 | 33516 ft | 505 kts | 137° |
| 2026-04-29 22:21 | 41.47312 | 27.19031 | 32732 ft | 505 kts | 137° |
| 2026-04-29 22:21 | 41.44861 | 27.22363 | 31911 ft | 505 kts | 137° |
| 2026-04-29 22:22 | 41.42397 | 27.25715 | 31065 ft | 505 kts | 137° |
| 2026-04-29 22:22 | 41.39964 | 27.29023 | 30205 ft | 506 kts | 137° |
| 2026-04-29 22:22 | 41.37506 | 27.32364 | 29305 ft | 506 kts | 137° |
| 2026-04-29 22:22 | 41.35066 | 27.35679 | 28390 ft | 507 kts | 137° |
| 2026-04-29 22:23 | 41.32590 | 27.39037 | 27419 ft | 508 kts | 136° |
| 2026-04-29 22:23 | 41.30136 | 27.42361 | 26434 ft | 509 kts | 136° |
| 2026-04-29 22:23 | 41.27671 | 27.45696 | 25440 ft | 510 kts | 136° |
| 2026-04-29 22:23 | 41.25217 | 27.49093 | 24403 ft | 513 kts | 133° |
| 2026-04-29 22:24 | 41.23159 | 27.52947 | 23446 ft | 514 kts | 121° |
| 2026-04-29 22:24 | 41.21690 | 27.57192 | 23085 ft | 501 kts | 112° |
| 2026-04-29 22:24 | 41.20462 | 27.61440 | 22805 ft | 488 kts | 111° |
| 2026-04-29 22:24 | 41.19276 | 27.65656 | 22273 ft | 481 kts | 111° |
| 2026-04-29 22:25 | 41.18123 | 27.69738 | 21643 ft | 476 kts | 111° |
| 2026-04-29 22:25 | 41.16951 | 27.73837 | 20983 ft | 472 kts | 111° |
| 2026-04-29 22:25 | 41.15792 | 27.77848 | 20344 ft | 468 kts | 111° |
| 2026-04-29 22:25 | 41.14627 | 27.81858 | 19783 ft | 461 kts | 112° |
| 2026-04-29 22:26 | 41.13495 | 27.85737 | 19546 ft | 447 kts | 112° |
| 2026-04-29 22:26 | 41.12395 | 27.89501 | 19324 ft | 434 kts | 112° |
| 2026-04-29 22:26 | 41.11309 | 27.93214 | 19075 ft | 423 kts | 112° |
| 2026-04-29 22:26 | 41.10272 | 27.96759 | 18660 ft | 417 kts | 112° |
| 2026-04-29 22:27 | 41.09228 | 28.00314 | 18284 ft | 409 kts | 112° |
| 2026-04-29 22:27 | 41.08210 | 28.03777 | 18094 ft | 397 kts | 112° |
| 2026-04-29 22:27 | 41.07222 | 28.07135 | 17899 ft | 386 kts | 112° |
| 2026-04-29 22:27 | 41.06262 | 28.10388 | 17709 ft | 376 kts | 112° |
| 2026-04-29 22:28 | 41.05328 | 28.13554 | 17530 ft | 365 kts | 112° |
| 2026-04-29 22:28 | 41.04240 | 28.16549 | 17324 ft | 353 kts | 128° |
| 2026-04-29 22:28 | 41.02462 | 28.18622 | 17122 ft | 337 kts | 156° |
| 2026-04-29 22:28 | 41.00291 | 28.19473 | 16801 ft | 325 kts | 174° |
| 2026-04-29 22:29 | 40.98047 | 28.19926 | 16397 ft | 324 kts | 175° |
| 2026-04-29 22:29 | 40.96080 | 28.20331 | 16040 ft | 323 kts | 174° |
| 2026-04-29 22:29 | 40.93890 | 28.20824 | 15645 ft | 322 kts | 173° |
| 2026-04-29 22:29 | 40.91669 | 28.21363 | 15264 ft | 320 kts | 172° |
| 2026-04-29 22:30 | 40.89508 | 28.21909 | 14878 ft | 318 kts | 172° |
| 2026-04-29 22:30 | 40.87328 | 28.22470 | 14490 ft | 316 kts | 172° |
| 2026-04-29 22:30 | 40.85181 | 28.23028 | 14117 ft | 314 kts | 171° |
| 2026-04-29 22:30 | 40.83053 | 28.23580 | 13725 ft | 313 kts | 171° |
| 2026-04-29 22:31 | 40.80935 | 28.24132 | 13351 ft | 310 kts | 171° |
| 2026-04-29 22:31 | 40.78835 | 28.24776 | 12961 ft | 310 kts | 165° |
| 2026-04-29 22:31 | 40.76808 | 28.25780 | 12580 ft | 310 kts | 157° |
| 2026-04-29 22:31 | 40.74920 | 28.27108 | 12193 ft | 311 kts | 145° |
| 2026-04-29 22:32 | 40.73563 | 28.29294 | 11829 ft | 309 kts | 112° |
| 2026-04-29 22:32 | 40.73242 | 28.31999 | 11635 ft | 297 kts | 84° |
| 2026-04-29 22:32 | 40.73487 | 28.34665 | 11461 ft | 288 kts | 81° |
| 2026-04-29 22:32 | 40.73729 | 28.37249 | 11170 ft | 284 kts | 82° |
| 2026-04-29 22:33 | 40.73933 | 28.39815 | 10822 ft | 283 kts | 83° |
| 2026-04-29 22:33 | 40.74107 | 28.42373 | 10480 ft | 281 kts | 83° |
| 2026-04-29 22:33 | 40.74261 | 28.44926 | 10144 ft | 279 kts | 84° |
| 2026-04-29 22:33 | 40.74403 | 28.47470 | 9797 ft | 278 kts | 84° |
| 2026-04-29 22:34 | 40.74539 | 28.50010 | 9467 ft | 276 kts | 84° |
| 2026-04-29 22:34 | 40.74668 | 28.52492 | 9144 ft | 273 kts | 84° |
| 2026-04-29 22:34 | 40.74796 | 28.55008 | 8803 ft | 271 kts | 84° |
| 2026-04-29 22:34 | 40.74920 | 28.57469 | 8462 ft | 269 kts | 84° |
| 2026-04-29 22:35 | 40.75042 | 28.59910 | 8155 ft | 267 kts | 84° |
| 2026-04-29 22:35 | 40.75162 | 28.62326 | 7828 ft | 265 kts | 84° |
| 2026-04-29 22:35 | 40.75281 | 28.64722 | 7497 ft | 262 kts | 84° |
| 2026-04-29 22:35 | 40.75398 | 28.67101 | 7171 ft | 260 kts | 85° |
| 2026-04-29 22:36 | 40.75514 | 28.69454 | 6855 ft | 257 kts | 85° |
| 2026-04-29 22:36 | 40.75628 | 28.71808 | 6543 ft | 255 kts | 85° |
| 2026-04-29 22:36 | 40.75741 | 28.74120 | 6216 ft | 253 kts | 85° |
| 2026-04-29 22:36 | 40.75853 | 28.76439 | 5894 ft | 252 kts | 85° |
| 2026-04-29 22:37 | 40.75964 | 28.78729 | 5575 ft | 250 kts | 85° |
| 2026-04-29 22:37 | 40.76072 | 28.80981 | 5259 ft | 248 kts | 85° |
| 2026-04-29 22:37 | 40.76181 | 28.83246 | 4939 ft | 245 kts | 85° |
| 2026-04-29 22:37 | 40.76288 | 28.85484 | 4628 ft | 243 kts | 85° |
| 2026-04-29 22:38 | 40.76392 | 28.87686 | 4325 ft | 241 kts | 86° |
| 2026-04-29 22:38 | 40.76496 | 28.89885 | 4042 ft | 237 kts | 86° |
| 2026-04-29 22:38 | 40.76595 | 28.92027 | 3984 ft | 230 kts | 86° |
| 2026-04-29 22:38 | 40.76689 | 28.94056 | 3966 ft | 217 kts | 86° |
| 2026-04-29 22:39 | 40.76783 | 28.96060 | 3978 ft | 217 kts | 86° |
| 2026-04-29 22:39 | 40.76876 | 28.98044 | 3987 ft | 217 kts | 86° |
| 2026-04-29 22:39 | 40.76967 | 28.99986 | 3988 ft | 216 kts | 85° |
| 2026-04-29 22:39 | 40.77292 | 29.01932 | 3837 ft | 215 kts | 66° |
| 2026-04-29 22:40 | 40.78026 | 29.03647 | 3614 ft | 212 kts | 57° |
| 2026-04-29 22:40 | 40.78817 | 29.05251 | 3383 ft | 208 kts | 57° |
| 2026-04-29 22:40 | 40.79599 | 29.06827 | 3149 ft | 203 kts | 57° |
| 2026-04-29 22:40 | 40.80400 | 29.08318 | 3032 ft | 194 kts | 49° |
| 2026-04-29 22:41 | 40.81374 | 29.09571 | 3055 ft | 195 kts | 44° |
| 2026-04-29 22:41 | 40.82258 | 29.10912 | 3013 ft | 194 kts | 54° |
| 2026-04-29 22:41 | 40.82974 | 29.12397 | 2988 ft | 185 kts | 60° |
| 2026-04-29 22:41 | 40.83583 | 29.13857 | 2976 ft | 178 kts | 63° |
| 2026-04-29 22:42 | 40.84131 | 29.15293 | 2964 ft | 177 kts | 64° |
| 2026-04-29 22:42 | 40.84663 | 29.16742 | 2760 ft | 170 kts | 65° |
| 2026-04-29 22:42 | 40.85157 | 29.18102 | 2492 ft | 157 kts | 65° |
| 2026-04-29 22:42 | 40.85605 | 29.19333 | 2258 ft | 142 kts | 65° |
| 2026-04-29 22:43 | 40.86012 | 29.20446 | 2023 ft | 133 kts | 64° |
| 2026-04-29 22:43 | 40.86417 | 29.21556 | 1832 ft | 132 kts | 64° |
| 2026-04-29 22:43 | 40.86812 | 29.22634 | 1636 ft | 132 kts | 64° |
| 2026-04-29 22:43 | 40.87212 | 29.23726 | 1430 ft | 132 kts | 64° |
| 2026-04-29 22:44 | 40.87611 | 29.24816 | 1218 ft | 131 kts | 64° |
| 2026-04-29 22:44 | 40.88007 | 29.25894 | 1010 ft | 131 kts | 63° |
| 2026-04-29 22:44 | 40.88402 | 29.26976 | 784 ft | 130 kts | 63° |
| 2026-04-29 22:44 | 40.88797 | 29.28052 | 571 ft | 130 kts | 62° |
| 2026-04-29 22:45 | 40.89193 | 29.29126 | 376 ft | 130 kts | 62° |
| 2026-04-29 22:45 | 40.89570 | 29.30144 | 321 ft | 107 kts | 64° |
| 2026-04-29 22:45 | 40.89829 | 29.30862 | 321 ft | 69 kts | 66° |
| 2026-04-29 22:45 | 40.89978 | 29.31183 | 321 ft | 27 kts | 47° |
| 2026-04-29 22:46 | 40.90102 | 29.31323 | 321 ft | 18 kts | 32° |
| 2026-04-29 22:46 | 40.90207 | 29.31413 | 321 ft | 17 kts | 35° |
| 2026-04-29 22:46 | 40.90285 | 29.31491 | 321 ft | 12 kts | 24° |
| 2026-04-29 22:46 | 40.90368 | 29.31466 | 321 ft | 13 kts | 334° |
| 2026-04-29 22:47 | 40.90453 | 29.31422 | 321 ft | 13 kts | 338° |
| 2026-04-29 22:47 | 40.90519 | 29.31381 | 321 ft | 4 kts | 334° |
| 2026-04-29 22:47 | 40.90527 | 29.31376 | 321 ft | 0 kts | 334° |